Paisaje, Colorado
Current Conditions -  °F | °C
As of 3:52 PM on Wednesday 26 Nov 2014 (Local Time) from KALS Reporting Station
Clear Clear  
Wind Chill: 44°   Ceiling: Unl
Heat Index: 48°   Visibility: 10mi
Dew Point: 19°   Wind: 8mph
Humidity: 32%   Direction: 220°SW
Pressure: 30.32"   Gusts: NA
Location:  37.1816°N, 106.262°W
Report Text: KALS 262252Z AUTO 22007KT 10SM CLR 09/M07 A3032 RMK AO2 SLP279 T00891072
Loading
Personal Weather Stations






























Interactive Weather Map New forecast layout! Learn more

10-Day Weather Forecast

Advertisements
Track Severe Weather on mobile